Time;durP1;ratioP1;P1;durP2;ratioP2;P2;SDS_P1;SDS_P2;PMS_P1;PMS_P2;Temp;Humidity;BMP_temperature;BMP_pressure;BME280_temperature;BME280_humidity;BME280_pressure;Samples;Min_cycle;Max_cycle;Signal;HPM_P1;HPM_P2
2021/11/29 00:02:22;;;;;;;27.88;16.45;;;1.60;50.00;;;;;;5064715;28;20039;-71
2021/11/29 00:04:51;;;;;;;28.80;16.25;;;1.50;50.30;;;;;;5044408;28;20048;-70
2021/11/29 00:07:19;;;;;;;27.95;16.33;;;1.50;50.40;;;;;;5063539;28;20123;-71
2021/11/29 00:09:47;;;;;;;29.50;15.52;;;1.60;50.80;;;;;;5060141;28;20117;-71
2021/11/29 00:12:17;;;;;;;29.60;17.02;;;1.60;50.30;;;;;;5064203;28;20068;-71
2021/11/29 00:14:45;;;;;;;31.75;17.75;;;1.60;50.80;;;;;;5067611;28;20102;-70
2021/11/29 00:17:15;;;;;;;32.50;17.05;;;1.60;50.20;;;;;;5064427;28;20044;-70
2021/11/29 00:19:45;;;;;;;30.45;16.92;;;1.60;50.40;;;;;;5063771;28;20055;-70
2021/11/29 00:22:16;;;;;;;29.77;17.50;;;1.60;50.10;;;;;;5064317;28;20414;-70
2021/11/29 00:24:49;;;;;;;33.60;18.50;;;1.60;50.00;;;;;;5066649;28;20048;-70
2021/11/29 00:29:51;;;;;;;32.08;18.55;;;1.60;50.50;;;;;;5066131;28;20101;-70
2021/11/29 00:32:19;;;;;;;33.97;18.35;;;1.60;51.00;;;;;;5063763;28;20053;-70
2021/11/29 00:34:49;;;;;;;36.53;19.52;;;1.60;50.60;;;;;;5064213;28;20123;-70
2021/11/29 00:37:20;;;;;;;31.48;18.63;;;1.60;50.50;;;;;;5065243;28;20492;-70
2021/11/29 00:39:51;;;;;;;34.60;18.20;;;1.60;50.30;;;;;;5064710;28;20059;-70
2021/11/29 00:42:19;;;;;;;35.38;19.02;;;1.50;50.50;;;;;;5063433;28;20054;-70
2021/11/29 00:44:47;;;;;;;36.03;20.10;;;1.60;50.70;;;;;;5066991;28;20032;-70
2021/11/29 00:47:15;;;;;;;34.28;19.25;;;1.50;50.50;;;;;;5063664;28;20048;-70
2021/11/29 00:49:48;;;;;;;33.00;18.33;;;1.60;50.50;;;;;;5063287;28;20048;-71
2021/11/29 00:52:17;;;;;;;33.33;18.27;;;1.50;50.20;;;;;;5061040;28;20049;-71
2021/11/29 00:54:44;;;;;;;32.33;18.40;;;1.60;50.50;;;;;;5065982;28;20041;-70
2021/11/29 00:57:13;;;;;;;34.45;19.02;;;1.60;50.30;;;;;;5064657;28;20155;-71
2021/11/29 00:59:46;;;;;;;33.08;18.48;;;1.50;49.70;;;;;;5065700;28;20106;-71
2021/11/29 01:02:18;;;;;;;34.20;18.52;;;1.60;50.20;;;;;;5064190;28;20494;-70
2021/11/29 01:04:46;;;;;;;32.65;17.58;;;1.50;49.80;;;;;;5065964;28;20040;-70
2021/11/29 01:07:15;;;;;;;33.42;17.85;;;1.50;49.60;;;;;;5065424;28;20496;-70
2021/11/29 01:09:46;;;;;;;35.28;18.85;;;1.50;49.80;;;;;;5068090;28;20045;-70
2021/11/29 01:12:16;;;;;;;33.78;18.17;;;1.50;49.60;;;;;;5067257;28;20503;-70
2021/11/29 01:14:44;;;;;;;35.47;18.23;;;1.60;50.20;;;;;;5069904;28;20052;-70
2021/11/29 01:17:14;;;;;;;35.97;18.98;;;1.60;49.60;;;;;;5070157;28;20101;-71
2021/11/29 01:19:42;;;;;;;32.97;18.83;;;1.60;49.50;;;;;;5069876;28;20131;-71
2021/11/29 01:22:10;;;;;;;32.92;18.52;;;1.50;49.30;;;;;;5068305;28;20127;-71
2021/11/29 01:24:41;;;;;;;32.90;18.73;;;1.60;49.60;;;;;;5069365;28;21017;-69
2021/11/29 01:27:09;;;;;;;36.72;18.98;;;1.60;49.00;;;;;;5067666;28;20107;-70
2021/11/29 01:29:38;;;;;;;33.17;18.60;;;1.60;48.70;;;;;;5068007;28;20044;-70
2021/11/29 01:32:06;;;;;;;34.17;19.58;;;1.50;48.70;;;;;;5065757;28;20131;-70
2021/11/29 01:34:38;;;;;;;35.35;19.02;;;1.50;48.70;;;;;;5067644;28;20044;-71
2021/11/29 01:37:09;;;;;;;36.42;20.15;;;1.60;48.40;;;;;;5066190;28;20063;-71
2021/11/29 01:39:42;;;;;;;36.97;20.25;;;1.50;48.40;;;;;;5071139;28;20036;-69
2021/11/29 01:42:11;;;;;;;39.58;20.48;;;1.50;48.00;;;;;;5068830;28;20408;-70
2021/11/29 01:44:39;;;;;;;34.97;20.08;;;1.50;47.80;;;;;;5067575;28;20500;-70
2021/11/29 01:47:11;;;;;;;32.83;20.05;;;1.60;48.30;;;;;;5069552;28;20044;-70
2021/11/29 01:49:39;;;;;;;37.33;20.77;;;1.60;48.00;;;;;;5068138;28;20400;-70
2021/11/29 01:52:10;;;;;;;36.60;19.65;;;1.60;47.50;;;;;;5065049;28;20056;-70
2021/11/29 01:54:38;;;;;;;40.25;21.02;;;1.60;47.50;;;;;;5072323;28;20131;-71
2021/11/29 01:57:08;;;;;;;42.63;21.05;;;1.60;47.50;;;;;;5066434;28;20064;-71
2021/11/29 01:59:39;;;;;;;36.63;18.90;;;1.60;47.10;;;;;;5066900;28;20060;-71
2021/11/29 02:02:07;;;;;;;35.13;20.48;;;1.60;46.60;;;;;;5068840;28;20119;-71
2021/11/29 02:04:36;;;;;;;36.65;19.65;;;1.60;47.10;;;;;;5067809;28;20048;-71
2021/11/29 02:07:05;;;;;;;36.50;19.27;;;1.60;47.10;;;;;;5066584;28;20135;-71
2021/11/29 02:09:37;;;;;;;39.78;21.85;;;1.60;47.50;;;;;;5067006;28;20530;-71
2021/11/29 02:12:10;;;;;;;35.50;20.38;;;1.70;47.00;;;;;;5066932;28;20053;-71
2021/11/29 02:14:46;;;;;;;38.00;21.02;;;1.70;47.50;;;;;;5068196;28;20075;-71
2021/11/29 02:17:15;;;;;;;37.38;20.73;;;1.70;48.10;;;;;;5067525;28;20106;-71
2021/11/29 02:19:47;;;;;;;41.05;20.77;;;1.70;47.40;;;;;;5071073;28;20143;-71
2021/11/29 02:22:18;;;;;;;39.75;20.67;;;1.70;47.50;;;;;;5058715;28;20655;-71
2021/11/29 02:24:46;;;;;;;40.50;20.88;;;1.70;47.50;;;;;;5072605;28;20555;-71
2021/11/29 02:27:18;;;;;;;44.50;22.50;;;1.70;47.50;;;;;;5069205;28;20274;-71
2021/11/29 02:29:51;;;;;;;39.53;21.35;;;1.80;47.60;;;;;;5069636;28;20036;-71
2021/11/29 02:32:24;;;;;;;39.60;21.77;;;1.80;47.70;;;;;;5071989;28;20064;-71
2021/11/29 02:34:52;;;;;;;40.63;21.67;;;1.70;46.90;;;;;;5076831;28;20067;-71
2021/11/29 02:37:21;;;;;;;38.25;20.67;;;1.70;47.00;;;;;;5070302;28;20060;-71
2021/11/29 02:39:52;;;;;;;41.05;21.67;;;1.70;47.50;;;;;;5072097;28;20068;-71
2021/11/29 02:42:22;;;;;;;40.92;20.83;;;1.70;47.50;;;;;;5068733;28;20044;-70
2021/11/29 02:44:50;;;;;;;36.63;21.17;;;1.70;47.50;;;;;;5074537;28;20129;-71
2021/11/29 02:47:20;;;;;;;41.17;22.88;;;1.70;46.80;;;;;;5071471;28;20056;-71
2021/11/29 02:49:49;;;;;;;42.55;22.27;;;1.70;47.50;;;;;;5071373;28;20037;-70
2021/11/29 02:52:19;;;;;;;41.42;22.20;;;1.70;47.50;;;;;;5067764;28;20071;-70
2021/11/29 02:54:51;;;;;;;41.30;22.17;;;1.60;46.00;;;;;;5071678;28;20052;-70
2021/11/29 02:57:23;;;;;;;45.60;23.60;;;1.60;46.00;;;;;;5072284;28;20040;-71
2021/11/29 02:59:52;;;;;;;43.63;24.25;;;1.60;45.80;;;;;;5068898;28;20128;-71
2021/11/29 03:02:21;;;;;;;46.45;24.33;;;1.50;45.40;;;;;;5073269;28;20490;-71
2021/11/29 03:04:51;;;;;;;47.75;23.73;;;1.50;45.60;;;;;;5071796;28;20136;-71
2021/11/29 03:07:23;;;;;;;45.90;23.92;;;1.50;44.50;;;;;;5068812;28;20071;-71
2021/11/29 03:09:56;;;;;;;47.00;23.52;;;1.50;44.50;;;;;;5072890;28;20486;-71
2021/11/29 03:12:26;;;;;;;46.53;24.77;;;1.50;44.80;;;;;;5068915;28;20568;-71
2021/11/29 03:14:54;;;;;;;43.65;23.27;;;1.50;45.00;;;;;;5072245;28;20511;-71
2021/11/29 03:17:24;;;;;;;43.85;24.23;;;1.60;45.30;;;;;;5065534;28;20044;-71
2021/11/29 03:19:57;;;;;;;41.92;22.48;;;1.50;44.40;;;;;;5072351;28;20044;-72
2021/11/29 03:22:28;;;;;;;42.08;23.20;;;1.50;45.20;;;;;;5065393;28;20037;-72
2021/11/29 03:25:05;;;;;;;40.05;22.25;;;1.50;45.30;;;;;;5071148;28;20036;-72
2021/11/29 03:27:33;;;;;;;39.83;22.92;;;1.50;45.80;;;;;;5066903;28;20029;-72
2021/11/29 03:30:01;;;;;;;40.53;23.40;;;1.50;45.30;;;;;;5072973;28;20049;-72
2021/11/29 03:32:29;;;;;;;41.17;23.58;;;1.50;44.30;;;;;;5066259;28;20105;-72
2021/11/29 03:35:01;;;;;;;39.75;22.02;;;1.50;43.30;;;;;;5069364;28;20041;-72
2021/11/29 03:37:33;;;;;;;40.22;22.70;;;1.50;43.50;;;;;;5068253;28;20507;-72
2021/11/29 03:40:01;;;;;;;38.22;20.98;;;1.50;42.10;;;;;;5067585;28;20040;-72
2021/11/29 03:42:31;;;;;;;34.97;21.05;;;1.50;40.90;;;;;;5069219;28;20058;-70
2021/11/29 03:45:01;;;;;;;37.95;21.13;;;1.50;40.60;;;;;;5071539;28;20115;-72
2021/11/29 03:47:31;;;;;;;39.13;20.92;;;1.50;40.80;;;;;;5068985;28;20104;-70
2021/11/29 03:49:59;;;;;;;38.15;20.55;;;1.40;40.70;;;;;;5068996;28;20041;-71
2021/11/29 03:52:31;;;;;;;38.03;19.75;;;1.50;41.00;;;;;;5066260;28;20094;-71
2021/11/29 03:55:00;;;;;;;38.55;20.60;;;1.40;39.20;;;;;;5070702;28;20090;-71
2021/11/29 03:57:32;;;;;;;35.47;20.05;;;1.50;39.40;;;;;;5070259;28;20056;-71
2021/11/29 04:00:00;;;;;;;37.90;21.13;;;1.40;39.30;;;;;;5067710;28;20780;-72
2021/11/29 04:02:33;;;;;;;32.85;17.70;;;1.50;40.50;;;;;;5065847;28;20049;-70
2021/11/29 04:05:01;;;;;;;34.47;19.55;;;1.50;41.00;;;;;;5070212;28;20040;-72
2021/11/29 04:07:29;;;;;;;33.78;20.23;;;1.50;41.40;;;;;;5069102;28;20055;-72
2021/11/29 04:09:57;;;;;;;36.55;21.33;;;1.50;41.80;;;;;;5067788;28;20131;-71
2021/11/29 04:12:25;;;;;;;33.70;19.02;;;1.50;42.00;;;;;;5068696;28;20039;-72
2021/11/29 04:14:54;;;;;;;31.33;18.95;;;1.50;42.80;;;;;;5072762;28;20044;-69
2021/11/29 04:17:26;;;;;;;32.45;18.83;;;1.50;42.20;;;;;;5070231;28;20040;-71
2021/11/29 04:19:58;;;;;;;32.92;19.23;;;1.50;42.90;;;;;;5070138;28;20040;-71
2021/11/29 04:22:29;;;;;;;39.03;18.67;;;1.50;42.30;;;;;;5065911;28;20072;-70
2021/11/29 04:25:00;;;;;;;32.85;18.25;;;1.50;42.70;;;;;;5071973;28;20048;-70
2021/11/29 04:27:30;;;;;;;35.97;19.30;;;1.50;42.50;;;;;;5071355;28;20104;-72
2021/11/29 04:30:04;;;;;;;38.17;19.65;;;1.50;42.90;;;;;;5074771;28;20082;-71
2021/11/29 04:32:34;;;;;;;33.30;18.98;;;1.50;42.20;;;;;;5064916;28;20075;-71
2021/11/29 04:35:06;;;;;;;32.72;17.67;;;1.40;42.40;;;;;;5072076;28;20055;-70
2021/11/29 04:37:38;;;;;;;36.67;19.42;;;1.50;43.20;;;;;;5068089;28;20064;-70
2021/11/29 04:40:12;;;;;;;;;;;1.40;42.90;;;;;;5066761;28;20060;-71
2021/11/29 04:42:44;;;;;;;33.05;18.10;;;1.40;43.20;;;;;;5071155;28;19931;-72
2021/11/29 04:45:13;;;;;;;34.42;19.00;;;1.40;43.70;;;;;;5071395;28;20057;-71
2021/11/29 04:47:42;;;;;;;38.88;19.17;;;1.40;43.30;;;;;;5069154;28;20047;-72
2021/11/29 04:50:12;;;;;;;35.03;18.40;;;1.40;43.20;;;;;;5067326;28;20052;-71
2021/11/29 04:52:44;;;;;;;35.97;17.48;;;1.40;43.90;;;;;;5065624;28;20123;-71
2021/11/29 04:55:13;;;;;;;35.47;18.77;;;1.50;43.80;;;;;;5074109;28;20612;-71
2021/11/29 04:57:45;;;;;;;32.88;19.10;;;1.40;43.10;;;;;;5066805;28;20491;-71
2021/11/29 05:00:19;;;;;;;35.60;18.38;;;1.50;44.20;;;;;;5072989;28;20056;-71
2021/11/29 05:02:51;;;;;;;33.72;18.27;;;1.50;44.00;;;;;;5066078;28;20036;-71
2021/11/29 05:05:21;;;;;;;38.00;20.45;;;1.40;43.50;;;;;;5068332;28;20172;-71
2021/11/29 05:07:52;;;;;;;36.50;19.90;;;1.50;44.50;;;;;;5067395;28;20047;-71
2021/11/29 05:10:24;;;;;;;35.47;19.13;;;1.50;43.90;;;;;;5071776;28;20028;-71
2021/11/29 05:12:52;;;;;;;36.10;19.02;;;1.50;44.60;;;;;;5067500;28;20043;-71
2021/11/29 05:15:22;;;;;;;34.55;18.55;;;1.40;44.50;;;;;;5068477;28;20105;-71
2021/11/29 05:17:50;;;;;;;35.97;19.00;;;1.40;44.80;;;;;;5072709;28;20048;-71
2021/11/29 05:20:19;;;;;;;36.67;19.67;;;1.40;45.20;;;;;;5067838;28;20072;-72
2021/11/29 05:22:50;;;;;;;35.78;19.30;;;1.40;46.00;;;;;;5065532;28;20466;-71
2021/11/29 05:25:20;;;;;;;35.08;19.33;;;1.40;45.80;;;;;;5067435;28;20127;-71
2021/11/29 05:27:49;;;;;;;40.53;19.73;;;1.40;46.20;;;;;;5068184;28;20040;-72
2021/11/29 05:30:17;;;;;;;39.47;19.30;;;1.50;46.20;;;;;;5068589;28;20033;-71
2021/11/29 05:32:52;;;;;;;38.03;19.90;;;1.40;45.70;;;;;;5071451;28;20055;-70
2021/11/29 05:35:25;;;;;;;41.85;20.02;;;1.50;46.30;;;;;;5057407;28;20070;-72
2021/11/29 05:37:54;;;;;;;38.25;19.42;;;1.50;46.10;;;;;;5073385;28;20606;-71
2021/11/29 05:40:25;;;;;;;39.05;19.95;;;1.40;45.10;;;;;;5070918;28;20557;-71
2021/11/29 05:42:53;;;;;;;42.08;20.70;;;1.40;45.60;;;;;;5066424;28;20040;-71
2021/11/29 05:45:26;;;;;;;33.72;18.17;;;1.40;45.70;;;;;;5071565;28;20072;-71
2021/11/29 05:47:56;;;;;;;36.20;18.95;;;1.40;45.80;;;;;;5069361;28;20534;-71
2021/11/29 05:50:25;;;;;;;38.55;19.08;;;1.40;44.30;;;;;;5069575;28;20033;-70
2021/11/29 05:52:58;;;;;;;41.80;20.53;;;1.40;43.30;;;;;;5050263;28;20102;-71
2021/11/29 05:55:27;;;;;;;36.22;18.30;;;1.40;44.20;;;;;;5067660;28;20665;-71
2021/11/29 05:57:57;;;;;;;35.67;19.05;;;1.40;43.60;;;;;;5068218;28;20040;-70
2021/11/29 06:00:28;;;;;;;38.35;19.52;;;1.40;43.30;;;;;;5065118;28;20079;-70
2021/11/29 06:02:59;;;;;;;35.75;18.10;;;1.40;43.10;;;;;;5068518;28;20032;-71
2021/11/29 06:05:31;;;;;;;;;;;1.40;42.90;;;;;;5074084;28;20079;-72
2021/11/29 06:07:59;;;;;;;38.30;19.40;;;1.40;41.60;;;;;;5071837;28;19964;-72
2021/11/29 06:10:27;;;;;;;40.53;19.90;;;1.40;41.20;;;;;;5067064;28;20143;-72
2021/11/29 06:12:55;;;;;;;35.63;18.38;;;1.50;41.70;;;;;;5063700;28;20510;-71
2021/11/29 06:15:23;;;;;;;32.22;17.55;;;1.50;42.10;;;;;;5070521;28;20056;-71
2021/11/29 06:17:59;;;;;;;36.65;18.60;;;1.40;41.50;;;;;;5067697;28;20040;-71
2021/11/29 06:20:27;;;;;;;34.25;16.48;;;1.40;41.70;;;;;;5067927;28;20036;-71
2021/11/29 06:22:56;;;;;;;32.80;16.90;;;1.40;39.50;;;;;;5065937;28;20168;-70
2021/11/29 06:25:26;;;;;;;28.92;16.02;;;1.40;39.20;;;;;;5064417;28;20050;-73
2021/11/29 06:27:55;;;;;;;31.80;15.68;;;1.40;39.10;;;;;;5066454;28;20573;-71
2021/11/29 06:30:25;;;;;;;28.95;16.30;;;1.40;39.20;;;;;;5070346;28;20123;-71
2021/11/29 06:32:56;;;;;;;32.90;17.33;;;1.50;39.30;;;;;;5065599;28;20051;-71
2021/11/29 06:35:29;;;;;;;31.48;15.18;;;1.50;39.30;;;;;;5067875;28;20036;-71
2021/11/29 06:38:02;;;;;;;31.05;17.05;;;1.40;39.20;;;;;;5068171;28;20072;-70
2021/11/29 06:40:32;;;;;;;31.38;16.60;;;1.50;39.30;;;;;;5067323;28;20475;-72
2021/11/29 06:43:00;;;;;;;29.38;14.95;;;1.50;39.00;;;;;;5063548;28;20106;-72
2021/11/29 06:45:28;;;;;;;28.85;16.17;;;1.50;39.30;;;;;;5060174;28;20045;-71
2021/11/29 06:47:56;;;;;;;31.15;15.57;;;1.50;39.30;;;;;;5065465;28;20059;-71
2021/11/29 06:50:27;;;;;;;36.10;16.15;;;1.50;39.30;;;;;;5069792;28;20098;-71
2021/11/29 06:52:58;;;;;;;29.52;15.50;;;1.50;39.00;;;;;;5062072;28;20044;-71
2021/11/29 06:55:26;;;;;;;28.92;14.48;;;1.50;38.70;;;;;;5065512;28;20128;-70
2021/11/29 06:57:54;;;;;;;29.55;14.27;;;1.50;38.80;;;;;;5066969;28;20056;-71
2021/11/29 07:00:24;;;;;;;28.25;14.13;;;1.50;38.30;;;;;;5065519;28;20442;-70
2021/11/29 07:02:56;;;;;;;28.75;14.43;;;1.50;36.60;;;;;;5058838;28;20521;-70
2021/11/29 07:05:30;;;;;;;26.25;13.45;;;1.50;37.40;;;;;;5066720;28;20044;-71
2021/11/29 07:08:03;;;;;;;27.10;14.15;;;1.50;36.60;;;;;;5069472;28;20110;-71
2021/11/29 07:10:32;;;;;;;29.90;14.25;;;1.50;36.20;;;;;;5066557;28;20424;-71
2021/11/29 07:13:00;;;;;;;27.90;13.20;;;1.40;36.10;;;;;;5067081;28;20115;-71
2021/11/29 07:15:30;;;;;;;26.95;12.77;;;1.40;36.40;;;;;;5067858;28;20064;-71
2021/11/29 07:18:02;;;;;;;23.65;12.27;;;1.40;35.30;;;;;;5067173;28;20072;-71
2021/11/29 07:20:32;;;;;;;18.17;11.02;;;1.40;34.10;;;;;;5071170;28;20052;-70
2021/11/29 07:23:04;;;;;;;21.77;11.52;;;1.40;32.00;;;;;;5070689;28;20059;-70
2021/11/29 07:25:33;;;;;;;19.40;9.82;;;1.40;33.40;;;;;;5072554;28;20041;-71
2021/11/29 07:28:01;;;;;;;20.60;10.48;;;1.40;31.80;;;;;;5069337;28;20064;-70
2021/11/29 07:30:29;;;;;;;22.42;10.77;;;1.40;32.00;;;;;;5070817;28;20119;-70
2021/11/29 07:33:00;;;;;;;17.98;10.70;;;1.40;32.20;;;;;;5065573;28;20074;-71
2021/11/29 07:35:32;;;;;;;18.17;10.27;;;1.40;32.00;;;;;;5069382;28;20071;-70
2021/11/29 07:38:07;;;;;;;18.67;10.27;;;1.50;32.00;;;;;;5070667;28;20055;-70
2021/11/29 07:40:36;;;;;;;19.25;10.27;;;1.40;30.90;;;;;;5069025;28;20041;-71
2021/11/29 07:43:09;;;;;;;18.35;10.23;;;1.40;30.90;;;;;;5071270;28;20041;-71
2021/11/29 07:45:40;;;;;;;19.83;10.77;;;1.40;30.90;;;;;;5071938;28;20447;-71
2021/11/29 07:48:13;;;;;;;17.10;9.40;;;1.40;30.90;;;;;;5069992;28;20044;-71
2021/11/29 07:50:44;;;;;;;16.88;9.80;;;1.40;29.80;;;;;;5071830;28;20044;-70
2021/11/29 07:53:13;;;;;;;21.73;9.30;;;1.40;29.90;;;;;;5068135;28;20049;-71
2021/11/29 07:55:42;;;;;;;17.95;8.75;;;1.40;28.30;;;;;;5067737;28;20045;-70
2021/11/29 07:58:10;;;;;;;16.55;9.63;;;1.40;28.80;;;;;;5072193;28;20503;-70
2021/11/29 08:00:39;;;;;;;21.85;10.05;;;1.40;30.00;;;;;;5069584;28;20051;-70
2021/11/29 08:03:08;;;;;;;23.52;10.45;;;1.40;30.80;;;;;;5067654;28;20041;-71
2021/11/29 08:05:38;;;;;;;17.45;9.98;;;1.30;30.10;;;;;;5071959;28;20041;-70
2021/11/29 08:08:10;;;;;;;17.58;8.85;;;1.30;31.50;;;;;;5068311;28;20048;-71
2021/11/29 08:10:41;;;;;;;18.58;8.95;;;1.30;30.80;;;;;;5069227;28;20040;-71
2021/11/29 08:13:16;;;;;;;16.08;7.60;;;1.30;30.80;;;;;;5069861;28;20041;-69
2021/11/29 08:15:46;;;;;;;17.98;9.75;;;1.30;29.00;;;;;;5063189;28;20118;-70
2021/11/29 08:18:14;;;;;;;16.55;9.43;;;1.30;29.80;;;;;;5070693;28;20492;-69
2021/11/29 08:20:47;;;;;;;18.45;9.10;;;1.30;29.50;;;;;;5066494;28;20040;-70
2021/11/29 08:23:19;;;;;;;15.70;8.43;;;1.40;30.30;;;;;;5069981;28;20051;-69
2021/11/29 08:25:54;;;;;;;17.98;8.40;;;1.40;28.90;;;;;;5066215;28;20036;-69
2021/11/29 08:28:28;;;;;;;15.88;8.63;;;1.40;29.20;;;;;;5069177;28;20048;-71
2021/11/29 08:30:57;;;;;;;18.85;9.35;;;1.40;27.60;;;;;;5064613;28;20132;-71
2021/11/29 08:33:27;;;;;;;19.98;8.52;;;1.40;28.30;;;;;;5068022;28;20535;-69
2021/11/29 08:35:56;;;;;;;21.13;10.35;;;1.50;29.00;;;;;;5069213;28;20048;-69
2021/11/29 08:38:23;;;;;;;18.63;10.07;;;1.50;27.50;;;;;;5067832;28;20445;-70
2021/11/29 08:40:56;;;;;;;15.90;9.70;;;1.50;27.50;;;;;;5066305;28;20045;-70
2021/11/29 08:43:24;;;;;;;17.20;9.80;;;1.40;27.50;;;;;;5073319;28;20047;-70
2021/11/29 08:45:58;;;;;;;17.38;10.05;;;1.50;28.90;;;;;;5070245;28;20048;-70
2021/11/29 08:48:30;;;;;;;22.15;10.98;;;1.50;28.60;;;;;;5067973;28;20067;-69
2021/11/29 08:51:03;;;;;;;18.63;10.13;;;1.50;27.90;;;;;;5063332;28;20686;-70
2021/11/29 08:53:37;;;;;;;20.15;9.25;;;1.60;29.00;;;;;;5069340;28;20048;-69
2021/11/29 08:56:08;;;;;;;15.32;9.15;;;1.50;29.10;;;;;;5066812;28;20051;-70
2021/11/29 08:58:38;;;;;;;18.33;8.73;;;1.60;28.20;;;;;;5068501;28;20055;-69
2021/11/29 09:01:11;;;;;;;16.60;9.38;;;1.60;27.10;;;;;;5065297;28;20071;-70
2021/11/29 09:03:40;;;;;;;19.15;9.10;;;1.60;27.30;;;;;;5066306;28;20384;-69
2021/11/29 09:06:14;;;;;;;18.33;8.40;;;1.70;26.60;;;;;;5063663;28;20090;-70
2021/11/29 09:08:45;;;;;;;16.60;8.70;;;1.80;25.30;;;;;;5066796;28;20064;-70
2021/11/29 09:11:15;;;;;;;15.57;8.35;;;2.00;26.50;;;;;;5066117;28;20052;-70
2021/11/29 09:13:47;;;;;;;17.53;8.23;;;2.00;23.30;;;;;;5056409;28;20109;-69
2021/11/29 09:16:18;;;;;;;16.23;8.48;;;2.00;21.70;;;;;;5065924;28;20306;-70
2021/11/29 09:18:49;;;;;;;15.02;8.32;;;2.20;22.10;;;;;;5072835;28;20181;-70
2021/11/29 09:21:22;;;;;;;19.70;8.10;;;2.20;21.30;;;;;;5062719;28;20067;-69
2021/11/29 09:23:55;;;;;;;18.42;8.70;;;2.20;21.30;;;;;;5067676;28;20043;-69
2021/11/29 09:26:27;;;;;;;16.77;7.68;;;2.30;21.30;;;;;;5063599;28;20515;-70
2021/11/29 09:28:56;;;;;;;15.07;7.30;;;2.20;19.80;;;;;;5070058;28;20049;-70
2021/11/29 09:31:29;;;;;;;15.82;7.53;;;2.20;18.20;;;;;;5063798;28;20147;-70
2021/11/29 09:33:59;;;;;;;12.38;7.20;;;2.40;19.70;;;;;;5068245;28;20032;-70
2021/11/29 09:36:47;;;;;;;14.57;6.75;;;2.30;16.70;;;;;;5063860;28;20109;-71
2021/11/29 09:39:15;;;;;;;14.20;8.05;;;2.30;17.40;;;;;;5069245;28;20139;-70
2021/11/29 09:41:48;;;;;;;13.07;6.78;;;2.50;18.40;;;;;;5061377;28;20137;-69
2021/11/29 09:44:17;;;;;;;14.15;6.53;;;2.40;17.20;;;;;;5068609;28;20105;-69
2021/11/29 09:46:46;;;;;;;15.25;6.80;;;2.40;15.80;;;;;;5068111;28;20079;-69
2021/11/29 09:49:18;;;;;;;10.98;6.20;;;2.50;15.10;;;;;;5069023;28;20411;-69
2021/11/29 09:51:46;;;;;;;15.02;6.20;;;2.40;15.90;;;;;;5060884;28;20090;-68
2021/11/29 09:54:14;;;;;;;11.65;6.10;;;2.70;16.30;;;;;;5070106;28;20553;-69
2021/11/29 09:56:45;;;;;;;9.57;5.35;;;2.70;14.80;;;;;;5048343;28;20400;-70
2021/11/29 09:59:14;;;;;;;9.18;4.72;;;2.60;12.50;;;;;;5072147;28;20063;-70
2021/11/29 10:01:44;;;;;;;12.18;5.03;;;2.90;13.10;;;;;;5064797;28;20044;-69
2021/11/29 10:04:14;;;;;;;9.48;4.88;;;3.10;13.40;;;;;;5067914;28;20110;-69
2021/11/29 10:06:43;;;;;;;9.10;4.97;;;3.10;10.40;;;;;;5065784;28;20051;-69
2021/11/29 10:09:28;;;;;;;11.40;6.22;;;2.80;12.90;;;;;;5070417;28;20358;-69
2021/11/29 10:12:01;;;;;;;9.48;4.97;;;3.00;12.60;;;;;;5064969;28;20039;-68
2021/11/29 10:14:32;;;;;;;12.23;5.40;;;3.00;12.80;;;;;;5065565;28;20048;-68
2021/11/29 10:17:04;;;;;;;16.15;5.65;;;3.00;13.00;;;;;;5066453;28;20045;-68
2021/11/29 10:19:38;;;;;;;7.90;4.85;;;3.00;11.70;;;;;;5072125;28;20151;-70
2021/11/29 10:22:14;;;;;;;10.00;4.60;;;3.00;12.50;;;;;;5063161;28;20471;-69
2021/11/29 10:24:42;;;;;;;27.60;5.97;;;2.70;11.50;;;;;;5066294;28;20534;-68
2021/11/29 10:27:17;;;;;;;;;;;2.90;12.20;;;;;;5067215;28;20044;-69
2021/11/29 10:29:53;;;;;;;11.60;5.40;;;2.90;11.80;;;;;;5070657;28;19921;-69
2021/11/29 10:32:32;;;;;;;13.05;6.03;;;2.80;12.30;;;;;;5067438;28;20492;-68
2021/11/29 10:35:01;;;;;;;9.23;4.93;;;3.00;12.40;;;;;;5064314;28;20056;-70
2021/11/29 10:37:36;;;;;;;10.20;5.72;;;2.60;11.10;;;;;;5066821;28;20557;-68
2021/11/29 10:40:08;;;;;;;6.90;4.53;;;2.70;12.00;;;;;;5070659;28;20143;-69
2021/11/29 10:42:37;;;;;;;10.02;4.60;;;2.80;11.00;;;;;;5069761;28;20044;-69
2021/11/29 10:45:08;;;;;;;10.90;4.47;;;2.90;11.30;;;;;;5075493;28;20136;-69
2021/11/29 10:47:37;;;;;;;10.57;4.32;;;2.70;10.40;;;;;;5072783;28;20040;-70
2021/11/29 10:50:07;;;;;;;12.55;5.20;;;2.50;11.00;;;;;;5070879;28;20049;-68
2021/11/29 10:52:35;;;;;;;10.40;5.05;;;2.40;11.40;;;;;;5066074;28;20505;-69
2021/11/29 10:55:05;;;;;;;11.10;5.22;;;2.70;12.00;;;;;;5070891;28;20059;-68
2021/11/29 10:57:46;;;;;;;10.48;5.28;;;2.70;11.10;;;;;;5061841;28;20175;-68
2021/11/29 11:00:17;;;;;;;13.02;5.10;;;2.70;11.10;;;;;;5066542;28;20080;-70
2021/11/29 11:03:02;;;;;;;17.60;5.55;;;2.70;11.50;;;;;;5064527;28;20492;-69
2021/11/29 11:05:33;;;;;;;11.65;5.53;;;2.80;11.20;;;;;;5065552;28;20063;-69
2021/11/29 11:08:11;;;;;;;11.73;5.70;;;2.70;11.90;;;;;;5074708;28;20136;-68
2021/11/29 11:10:39;;;;;;;10.68;5.88;;;2.50;11.50;;;;;;5069983;28;20050;-70
2021/11/29 11:13:10;;;;;;;8.90;5.55;;;2.50;11.70;;;;;;5069720;28;20060;-68
2021/11/29 11:15:44;;;;;;;16.95;6.65;;;2.60;12.00;;;;;;5067979;28;20037;-68
2021/11/29 11:18:17;;;;;;;11.05;5.65;;;2.70;12.50;;;;;;5069345;28;20082;-69
2021/11/29 11:20:50;;;;;;;12.27;5.95;;;2.60;11.10;;;;;;5067378;28;20033;-69
2021/11/29 11:23:27;;;;;;;16.52;6.05;;;2.70;11.20;;;;;;5070775;28;20094;-69
2021/11/29 11:26:00;;;;;;;12.50;6.13;;;2.60;10.50;;;;;;5066927;28;20037;-69
2021/11/29 11:28:36;;;;;;;9.38;5.32;;;2.60;10.50;;;;;;5073773;28;20048;-68
2021/11/29 11:31:05;;;;;;;13.70;5.88;;;2.60;11.10;;;;;;5063440;28;20102;-69
2021/11/29 11:33:54;;;;;;;9.10;5.80;;;2.70;10.00;;;;;;5070775;28;20044;-69
2021/11/29 11:36:25;;;;;;;12.60;5.88;;;2.60;10.00;;;;;;5071460;28;20060;-69
2021/11/29 11:39:03;;;;;;;8.77;5.65;;;2.90;9.40;;;;;;5071074;28;20048;-69
2021/11/29 11:41:33;;;;;;;12.15;6.38;;;2.80;11.00;;;;;;5067161;28;20805;-69
2021/11/29 11:44:09;;;;;;;9.50;5.40;;;2.70;10.20;;;;;;5072183;28;20040;-69
2021/11/29 11:46:44;;;;;;;10.45;5.43;;;2.50;11.00;;;;;;5068489;28;20040;-69
2021/11/29 11:49:16;;;;;;;9.45;5.68;;;2.80;11.40;;;;;;5075107;28;20132;-69
2021/11/29 11:51:50;;;;;;;14.23;6.43;;;2.70;11.10;;;;;;5066550;28;20133;-69
2021/11/29 11:54:18;;;;;;;13.23;6.10;;;2.80;10.60;;;;;;5068985;28;20162;-69
2021/11/29 11:57:14;;;;;;;12.57;6.10;;;2.70;11.10;;;;;;5067260;28;20496;-68
2021/11/29 11:59:56;;;;;;;10.48;6.07;;;2.50;11.00;;;;;;5073689;28;20507;-69
2021/11/29 12:02:49;;;;;;;13.23;6.55;;;2.70;13.40;;;;;;5069680;28;20680;-69
2021/11/29 12:05:25;;;;;;;10.13;5.93;;;2.50;13.10;;;;;;5069686;28;20040;-69
2021/11/29 12:07:58;;;;;;;11.27;6.63;;;2.70;12.00;;;;;;5061445;28;20040;-68
2021/11/29 12:10:39;;;;;;;8.48;5.68;;;2.70;10.90;;;;;;5070265;28;20050;-68
2021/11/29 12:13:11;;;;;;;8.98;5.55;;;2.70;10.10;;;;;;5066769;28;20060;-67
2021/11/29 12:15:45;;;;;;;10.40;5.50;;;2.70;9.60;;;;;;5069087;28;20041;-68
2021/11/29 12:18:35;;;;;;;12.50;6.53;;;2.80;10.40;;;;;;5063586;28;20052;-68
2021/11/29 12:21:27;;;;;;;12.05;5.53;;;2.90;10.40;;;;;;5066291;28;20078;-68
2021/11/29 12:24:02;;;;;;;12.45;6.38;;;2.80;9.10;;;;;;5068121;28;20044;-68
2021/11/29 12:27:01;;;;;;;13.43;5.95;;;2.80;11.00;;;;;;5065057;28;20053;-68
2021/11/29 12:29:45;;;;;;;10.00;6.03;;;2.80;11.20;;;;;;5071249;28;20407;-67
2021/11/29 12:32:15;;;;;;;10.98;6.72;;;2.60;10.00;;;;;;5067777;28;20064;-68
2021/11/29 12:34:57;;;;;;;10.32;6.90;;;2.60;10.00;;;;;;5066346;28;20037;-68
2021/11/29 12:37:26;;;;;;;12.40;6.50;;;2.60;10.00;;;;;;5051307;28;20591;-70
2021/11/29 12:39:57;;;;;;;11.43;6.82;;;2.50;9.30;;;;;;5068280;28;20087;-67
2021/11/29 12:42:54;;;;;;;11.05;6.78;;;2.70;10.10;;;;;;5060075;28;20446;-68
2021/11/29 12:45:29;;;;;;;10.50;6.35;;;2.60;10.20;;;;;;5064683;28;20046;-68
2021/11/29 12:48:09;;;;;;;15.57;7.38;;;2.60;10.00;;;;;;5067429;28;20060;-68
2021/11/29 12:50:49;;;;;;;14.73;7.15;;;2.60;11.10;;;;;;5062171;28;20044;-69
2021/11/29 12:53:32;;;;;;;12.32;6.50;;;2.50;11.30;;;;;;5065028;28;20044;-68
2021/11/29 12:56:18;;;;;;;13.65;7.63;;;2.50;11.30;;;;;;5068996;28;20044;-68
2021/11/29 12:59:00;;;;;;;13.63;6.70;;;2.50;11.00;;;;;;5066846;28;20448;-68
2021/11/29 13:01:37;;;;;;;17.08;7.63;;;2.60;11.10;;;;;;5062716;28;20149;-69
2021/11/29 13:04:21;;;;;;;15.23;9.10;;;2.60;11.80;;;;;;5064833;28;20056;-67
2021/11/29 13:06:58;;;;;;;18.02;8.43;;;2.50;12.30;;;;;;5064636;28;20117;-67
2021/11/29 13:09:39;;;;;;;13.48;7.78;;;2.50;11.60;;;;;;5066047;28;20204;-68